sensor_id;sensor_type;location;lat;lon;timestamp;P1;durP1;ratioP1;P2;durP2;ratioP2
34960;SDS011;30789;52.030;7.110;2022-10-15T00:02:21;36.53;;;19.98;;
34960;SDS011;30789;52.030;7.110;2022-10-15T00:04:48;37.45;;;21.10;;
34960;SDS011;30789;52.030;7.110;2022-10-15T00:07:14;33.85;;;19.35;;
34960;SDS011;30789;52.030;7.110;2022-10-15T00:09:41;38.30;;;20.80;;
34960;SDS011;30789;52.030;7.110;2022-10-15T00:12:07;40.28;;;21.02;;
34960;SDS011;30789;52.030;7.110;2022-10-15T00:14:33;36.20;;;20.15;;
34960;SDS011;30789;52.030;7.110;2022-10-15T00:17:01;40.90;;;20.00;;
34960;SDS011;30789;52.030;7.110;2022-10-15T00:19:28;36.85;;;20.48;;
34960;SDS011;30789;52.030;7.110;2022-10-15T00:21:54;40.00;;;22.20;;
34960;SDS011;30789;52.030;7.110;2022-10-15T00:24:21;41.13;;;21.60;;
34960;SDS011;30789;52.030;7.110;2022-10-15T00:26:47;37.28;;;20.58;;
34960;SDS011;30789;52.030;7.110;2022-10-15T00:29:13;36.58;;;21.02;;
34960;SDS011;30789;52.030;7.110;2022-10-15T00:31:40;37.25;;;21.13;;
34960;SDS011;30789;52.030;7.110;2022-10-15T00:34:08;40.08;;;21.27;;
34960;SDS011;30789;52.030;7.110;2022-10-15T00:36:35;38.42;;;20.17;;
34960;SDS011;30789;52.030;7.110;2022-10-15T00:39:02;40.67;;;21.67;;
34960;SDS011;30789;52.030;7.110;2022-10-15T00:41:30;37.08;;;20.38;;
34960;SDS011;30789;52.030;7.110;2022-10-15T00:43:59;35.60;;;20.67;;
34960;SDS011;30789;52.030;7.110;2022-10-15T00:46:28;38.28;;;18.98;;
34960;SDS011;30789;52.030;7.110;2022-10-15T00:48:59;35.08;;;20.25;;
34960;SDS011;30789;52.030;7.110;2022-10-15T00:51:30;34.87;;;19.17;;
34960;SDS011;30789;52.030;7.110;2022-10-15T00:54:00;37.85;;;19.52;;
34960;SDS011;30789;52.030;7.110;2022-10-15T00:56:27;39.53;;;20.63;;
34960;SDS011;30789;52.030;7.110;2022-10-15T00:58:56;34.28;;;19.85;;
34960;SDS011;30789;52.030;7.110;2022-10-15T01:01:23;35.47;;;20.48;;
34960;SDS011;30789;52.030;7.110;2022-10-15T01:03:50;33.15;;;19.33;;
34960;SDS011;30789;52.030;7.110;2022-10-15T01:06:17;33.65;;;19.13;;
34960;SDS011;30789;52.030;7.110;2022-10-15T01:08:45;29.73;;;17.70;;
34960;SDS011;30789;52.030;7.110;2022-10-15T01:11:16;32.72;;;18.27;;
34960;SDS011;30789;52.030;7.110;2022-10-15T01:13:58;33.35;;;19.63;;
34960;SDS011;30789;52.030;7.110;2022-10-15T01:16:35;31.30;;;18.35;;
34960;SDS011;30789;52.030;7.110;2022-10-15T01:19:11;29.70;;;17.02;;
34960;SDS011;30789;52.030;7.110;2022-10-15T01:21:53;30.73;;;18.45;;
34960;SDS011;30789;52.030;7.110;2022-10-15T01:24:44;29.08;;;17.40;;
34960;SDS011;30789;52.030;7.110;2022-10-15T01:27:29;29.20;;;16.80;;
34960;SDS011;30789;52.030;7.110;2022-10-15T01:30:04;28.73;;;17.37;;
34960;SDS011;30789;52.030;7.110;2022-10-15T01:32:42;31.52;;;18.02;;
34960;SDS011;30789;52.030;7.110;2022-10-15T01:35:16;28.25;;;17.65;;
34960;SDS011;30789;52.030;7.110;2022-10-15T01:37:54;29.70;;;18.40;;
34960;SDS011;30789;52.030;7.110;2022-10-15T01:40:33;27.75;;;17.48;;
34960;SDS011;30789;52.030;7.110;2022-10-15T01:43:05;27.08;;;15.65;;
34960;SDS011;30789;52.030;7.110;2022-10-15T01:45:39;29.05;;;16.63;;
34960;SDS011;30789;52.030;7.110;2022-10-15T01:48:11;26.67;;;16.55;;
34960;SDS011;30789;52.030;7.110;2022-10-15T01:50:39;33.22;;;17.88;;
34960;SDS011;30789;52.030;7.110;2022-10-15T01:53:10;30.15;;;16.80;;
34960;SDS011;30789;52.030;7.110;2022-10-15T01:55:40;34.20;;;18.25;;
34960;SDS011;30789;52.030;7.110;2022-10-15T01:58:10;28.75;;;16.83;;
34960;SDS011;30789;52.030;7.110;2022-10-15T02:00:40;31.35;;;17.77;;
34960;SDS011;30789;52.030;7.110;2022-10-15T02:03:08;28.00;;;16.92;;
34960;SDS011;30789;52.030;7.110;2022-10-15T02:05:36;34.78;;;18.52;;
34960;SDS011;30789;52.030;7.110;2022-10-15T02:08:06;31.45;;;17.85;;
34960;SDS011;30789;52.030;7.110;2022-10-15T02:10:46;36.03;;;19.60;;
34960;SDS011;30789;52.030;7.110;2022-10-15T02:13:18;39.25;;;19.02;;
34960;SDS011;30789;52.030;7.110;2022-10-15T02:15:52;36.85;;;18.45;;
34960;SDS011;30789;52.030;7.110;2022-10-15T02:18:27;35.58;;;19.27;;
34960;SDS011;30789;52.030;7.110;2022-10-15T02:21:00;35.15;;;18.80;;
34960;SDS011;30789;52.030;7.110;2022-10-15T02:23:34;39.40;;;19.05;;
34960;SDS011;30789;52.030;7.110;2022-10-15T02:26:03;39.60;;;20.17;;
34960;SDS011;30789;52.030;7.110;2022-10-15T02:28:33;36.78;;;19.20;;
34960;SDS011;30789;52.030;7.110;2022-10-15T02:31:02;44.72;;;19.92;;
34960;SDS011;30789;52.030;7.110;2022-10-15T02:33:32;44.38;;;21.10;;
34960;SDS011;30789;52.030;7.110;2022-10-15T02:36:00;34.85;;;19.63;;
34960;SDS011;30789;52.030;7.110;2022-10-15T02:38:27;41.55;;;21.92;;
34960;SDS011;30789;52.030;7.110;2022-10-15T02:40:55;40.42;;;21.08;;
34960;SDS011;30789;52.030;7.110;2022-10-15T02:43:22;39.58;;;20.73;;
34960;SDS011;30789;52.030;7.110;2022-10-15T02:45:49;38.75;;;21.08;;
34960;SDS011;30789;52.030;7.110;2022-10-15T02:48:17;38.92;;;20.50;;
34960;SDS011;30789;52.030;7.110;2022-10-15T02:50:44;41.70;;;21.17;;
34960;SDS011;30789;52.030;7.110;2022-10-15T02:53:10;42.45;;;22.35;;
34960;SDS011;30789;52.030;7.110;2022-10-15T02:55:36;46.65;;;22.58;;
34960;SDS011;30789;52.030;7.110;2022-10-15T02:58:03;37.67;;;21.65;;
34960;SDS011;30789;52.030;7.110;2022-10-15T03:00:29;43.30;;;20.83;;
34960;SDS011;30789;52.030;7.110;2022-10-15T03:02:56;38.92;;;21.40;;
34960;SDS011;30789;52.030;7.110;2022-10-15T03:05:24;41.72;;;20.80;;
34960;SDS011;30789;52.030;7.110;2022-10-15T03:07:51;41.67;;;20.77;;
34960;SDS011;30789;52.030;7.110;2022-10-15T03:10:17;39.05;;;20.13;;
34960;SDS011;30789;52.030;7.110;2022-10-15T03:12:44;38.30;;;20.45;;
34960;SDS011;30789;52.030;7.110;2022-10-15T03:15:10;44.90;;;21.73;;
34960;SDS011;30789;52.030;7.110;2022-10-15T03:17:37;40.13;;;21.08;;
34960;SDS011;30789;52.030;7.110;2022-10-15T03:20:04;44.13;;;21.58;;
34960;SDS011;30789;52.030;7.110;2022-10-15T03:22:32;38.83;;;20.30;;
34960;SDS011;30789;52.030;7.110;2022-10-15T03:24:59;37.38;;;21.02;;
34960;SDS011;30789;52.030;7.110;2022-10-15T03:27:25;41.70;;;21.58;;
34960;SDS011;30789;52.030;7.110;2022-10-15T03:29:51;44.13;;;21.08;;
34960;SDS011;30789;52.030;7.110;2022-10-15T03:32:18;42.58;;;21.50;;
34960;SDS011;30789;52.030;7.110;2022-10-15T03:34:44;42.42;;;21.38;;
34960;SDS011;30789;52.030;7.110;2022-10-15T03:37:11;35.42;;;19.15;;
34960;SDS011;30789;52.030;7.110;2022-10-15T03:39:39;37.13;;;20.33;;
34960;SDS011;30789;52.030;7.110;2022-10-15T03:42:05;34.22;;;19.35;;
34960;SDS011;30789;52.030;7.110;2022-10-15T03:44:31;41.85;;;21.27;;
34960;SDS011;30789;52.030;7.110;2022-10-15T03:46:58;37.83;;;20.45;;
34960;SDS011;30789;52.030;7.110;2022-10-15T03:49:25;34.50;;;19.25;;
34960;SDS011;30789;52.030;7.110;2022-10-15T03:51:51;40.70;;;20.95;;
34960;SDS011;30789;52.030;7.110;2022-10-15T03:54:18;35.75;;;19.40;;
34960;SDS011;30789;52.030;7.110;2022-10-15T03:56:45;37.92;;;18.75;;
34960;SDS011;30789;52.030;7.110;2022-10-15T03:59:12;40.55;;;20.15;;
34960;SDS011;30789;52.030;7.110;2022-10-15T04:01:38;33.15;;;18.48;;
34960;SDS011;30789;52.030;7.110;2022-10-15T04:04:05;37.47;;;19.95;;
34960;SDS011;30789;52.030;7.110;2022-10-15T04:06:31;38.00;;;19.08;;
34960;SDS011;30789;52.030;7.110;2022-10-15T04:08:58;34.95;;;18.45;;
34960;SDS011;30789;52.030;7.110;2022-10-15T04:11:24;39.30;;;20.58;;
34960;SDS011;30789;52.030;7.110;2022-10-15T04:13:52;40.70;;;20.58;;
34960;SDS011;30789;52.030;7.110;2022-10-15T04:16:19;39.10;;;20.70;;
34960;SDS011;30789;52.030;7.110;2022-10-15T04:18:45;37.70;;;20.63;;
34960;SDS011;30789;52.030;7.110;2022-10-15T04:21:12;37.78;;;21.08;;
34960;SDS011;30789;52.030;7.110;2022-10-15T04:23:38;40.03;;;20.30;;
34960;SDS011;30789;52.030;7.110;2022-10-15T04:26:04;36.85;;;19.65;;
34960;SDS011;30789;52.030;7.110;2022-10-15T04:28:31;39.10;;;21.38;;
34960;SDS011;30789;52.030;7.110;2022-10-15T04:30:59;40.20;;;19.40;;
34960;SDS011;30789;52.030;7.110;2022-10-15T04:33:26;38.45;;;20.67;;
34960;SDS011;30789;52.030;7.110;2022-10-15T04:35:57;36.40;;;21.15;;
34960;SDS011;30789;52.030;7.110;2022-10-15T04:38:24;37.67;;;21.02;;
34960;SDS011;30789;52.030;7.110;2022-10-15T04:40:56;38.88;;;19.92;;
34960;SDS011;30789;52.030;7.110;2022-10-15T04:43:24;36.88;;;18.92;;
34960;SDS011;30789;52.030;7.110;2022-10-15T04:45:53;36.05;;;19.90;;
34960;SDS011;30789;52.030;7.110;2022-10-15T04:48:22;38.92;;;19.20;;
34960;SDS011;30789;52.030;7.110;2022-10-15T04:50:49;32.22;;;19.85;;
34960;SDS011;30789;52.030;7.110;2022-10-15T04:53:15;33.10;;;18.58;;
34960;SDS011;30789;52.030;7.110;2022-10-15T04:55:42;32.55;;;17.85;;
34960;SDS011;30789;52.030;7.110;2022-10-15T04:58:08;34.20;;;19.50;;
34960;SDS011;30789;52.030;7.110;2022-10-15T05:00:35;34.92;;;19.80;;
34960;SDS011;30789;52.030;7.110;2022-10-15T05:03:01;33.08;;;19.85;;
34960;SDS011;30789;52.030;7.110;2022-10-15T05:05:29;37.47;;;19.90;;
34960;SDS011;30789;52.030;7.110;2022-10-15T05:07:57;32.17;;;19.02;;
34960;SDS011;30789;52.030;7.110;2022-10-15T05:10:24;32.28;;;18.55;;
34960;SDS011;30789;52.030;7.110;2022-10-15T05:12:51;31.90;;;18.92;;
34960;SDS011;30789;52.030;7.110;2022-10-15T05:15:18;28.90;;;17.67;;
34960;SDS011;30789;52.030;7.110;2022-10-15T05:17:44;32.70;;;18.23;;
34960;SDS011;30789;52.030;7.110;2022-10-15T05:20:10;29.90;;;18.17;;
34960;SDS011;30789;52.030;7.110;2022-10-15T05:22:38;31.38;;;18.65;;
34960;SDS011;30789;52.030;7.110;2022-10-15T05:25:05;34.78;;;18.85;;
34960;SDS011;30789;52.030;7.110;2022-10-15T05:27:32;36.58;;;20.02;;
34960;SDS011;30789;52.030;7.110;2022-10-15T05:29:58;29.75;;;18.02;;
34960;SDS011;30789;52.030;7.110;2022-10-15T05:32:25;26.67;;;16.83;;
34960;SDS011;30789;52.030;7.110;2022-10-15T05:34:51;30.73;;;18.25;;
34960;SDS011;30789;52.030;7.110;2022-10-15T05:37:18;35.65;;;18.33;;
34960;SDS011;30789;52.030;7.110;2022-10-15T05:39:45;34.50;;;18.17;;
34960;SDS011;30789;52.030;7.110;2022-10-15T05:42:12;34.38;;;18.80;;
34960;SDS011;30789;52.030;7.110;2022-10-15T05:44:38;38.38;;;18.90;;
34960;SDS011;30789;52.030;7.110;2022-10-15T05:47:05;34.83;;;19.83;;
34960;SDS011;30789;52.030;7.110;2022-10-15T05:49:35;31.02;;;18.95;;
34960;SDS011;30789;52.030;7.110;2022-10-15T05:52:02;31.23;;;18.52;;
34960;SDS011;30789;52.030;7.110;2022-10-15T05:54:29;33.00;;;19.63;;
34960;SDS011;30789;52.030;7.110;2022-10-15T05:56:56;31.50;;;19.10;;
34960;SDS011;30789;52.030;7.110;2022-10-15T05:59:23;34.53;;;19.40;;
34960;SDS011;30789;52.030;7.110;2022-10-15T06:01:49;37.85;;;18.90;;
34960;SDS011;30789;52.030;7.110;2022-10-15T06:04:15;34.50;;;19.95;;
34960;SDS011;30789;52.030;7.110;2022-10-15T06:06:42;33.00;;;19.50;;
34960;SDS011;30789;52.030;7.110;2022-10-15T06:09:08;34.08;;;20.23;;
34960;SDS011;30789;52.030;7.110;2022-10-15T06:11:35;40.20;;;21.95;;
34960;SDS011;30789;52.030;7.110;2022-10-15T06:14:03;36.88;;;21.48;;
34960;SDS011;30789;52.030;7.110;2022-10-15T06:16:29;41.47;;;22.63;;
34960;SDS011;30789;52.030;7.110;2022-10-15T06:18:56;40.95;;;23.42;;
34960;SDS011;30789;52.030;7.110;2022-10-15T06:21:22;37.10;;;22.05;;
34960;SDS011;30789;52.030;7.110;2022-10-15T06:23:48;43.25;;;22.90;;
34960;SDS011;30789;52.030;7.110;2022-10-15T06:39:43;52.60;;;24.42;;
34960;SDS011;30789;52.030;7.110;2022-10-15T06:42:10;48.45;;;23.90;;
34960;SDS011;30789;52.030;7.110;2022-10-15T06:44:37;50.30;;;24.85;;
34960;SDS011;30789;52.030;7.110;2022-10-15T06:47:03;53.08;;;25.40;;
34960;SDS011;30789;52.030;7.110;2022-10-15T06:49:30;55.05;;;25.85;;
34960;SDS011;30789;52.030;7.110;2022-10-15T06:51:57;53.70;;;26.73;;
34960;SDS011;30789;52.030;7.110;2022-10-15T06:54:23;52.40;;;27.50;;
34960;SDS011;30789;52.030;7.110;2022-10-15T06:56:51;55.42;;;27.52;;
34960;SDS011;30789;52.030;7.110;2022-10-15T06:59:18;57.17;;;27.02;;
34960;SDS011;30789;52.030;7.110;2022-10-15T07:01:45;56.25;;;26.55;;
34960;SDS011;30789;52.030;7.110;2022-10-15T07:04:12;50.53;;;27.23;;
34960;SDS011;30789;52.030;7.110;2022-10-15T07:06:38;55.00;;;27.33;;
34960;SDS011;30789;52.030;7.110;2022-10-15T07:09:05;50.50;;;28.73;;
34960;SDS011;30789;52.030;7.110;2022-10-15T07:11:32;55.65;;;27.27;;
34960;SDS011;30789;52.030;7.110;2022-10-15T07:13:59;61.35;;;27.98;;
34960;SDS011;30789;52.030;7.110;2022-10-15T07:16:26;53.03;;;28.13;;
34960;SDS011;30789;52.030;7.110;2022-10-15T07:18:53;56.35;;;28.33;;
34960;SDS011;30789;52.030;7.110;2022-10-15T07:21:19;54.22;;;27.83;;
34960;SDS011;30789;52.030;7.110;2022-10-15T07:23:45;56.03;;;28.42;;
34960;SDS011;30789;52.030;7.110;2022-10-15T07:26:12;57.20;;;28.92;;
34960;SDS011;30789;52.030;7.110;2022-10-15T07:28:38;57.83;;;28.27;;
34960;SDS011;30789;52.030;7.110;2022-10-15T07:31:06;53.17;;;28.23;;
34960;SDS011;30789;52.030;7.110;2022-10-15T07:33:33;54.35;;;28.40;;
34960;SDS011;30789;52.030;7.110;2022-10-15T07:36:01;54.35;;;28.52;;
34960;SDS011;30789;52.030;7.110;2022-10-15T07:38:28;58.85;;;29.05;;
34960;SDS011;30789;52.030;7.110;2022-10-15T07:40:56;58.28;;;29.27;;
34960;SDS011;30789;52.030;7.110;2022-10-15T07:43:23;53.53;;;27.70;;
34960;SDS011;30789;52.030;7.110;2022-10-15T07:45:49;54.72;;;29.98;;
34960;SDS011;30789;52.030;7.110;2022-10-15T07:48:17;49.00;;;28.13;;
34960;SDS011;30789;52.030;7.110;2022-10-15T07:50:44;47.72;;;25.95;;
34960;SDS011;30789;52.030;7.110;2022-10-15T07:53:11;51.75;;;28.80;;
34960;SDS011;30789;52.030;7.110;2022-10-15T07:55:37;54.95;;;27.85;;
34960;SDS011;30789;52.030;7.110;2022-10-15T07:58:04;52.28;;;28.23;;
34960;SDS011;30789;52.030;7.110;2022-10-15T08:00:32;53.47;;;29.25;;
34960;SDS011;30789;52.030;7.110;2022-10-15T08:02:58;49.97;;;28.38;;
34960;SDS011;30789;52.030;7.110;2022-10-15T08:05:26;47.78;;;27.63;;
34960;SDS011;30789;52.030;7.110;2022-10-15T08:07:52;47.65;;;28.67;;
34960;SDS011;30789;52.030;7.110;2022-10-15T08:10:19;54.53;;;28.90;;
34960;SDS011;30789;52.030;7.110;2022-10-15T08:12:45;48.05;;;27.10;;
34960;SDS011;30789;52.030;7.110;2022-10-15T08:15:12;43.72;;;27.05;;
34960;SDS011;30789;52.030;7.110;2022-10-15T08:17:38;45.83;;;28.20;;
34960;SDS011;30789;52.030;7.110;2022-10-15T08:20:05;43.03;;;27.73;;
34960;SDS011;30789;52.030;7.110;2022-10-15T08:22:33;45.78;;;27.65;;
34960;SDS011;30789;52.030;7.110;2022-10-15T08:25:00;44.65;;;27.92;;
34960;SDS011;30789;52.030;7.110;2022-10-15T08:27:26;52.83;;;29.55;;
34960;SDS011;30789;52.030;7.110;2022-10-15T08:29:53;52.88;;;30.17;;
34960;SDS011;30789;52.030;7.110;2022-10-15T08:32:19;44.13;;;27.92;;
34960;SDS011;30789;52.030;7.110;2022-10-15T08:34:46;42.70;;;28.90;;
34960;SDS011;30789;52.030;7.110;2022-10-15T08:37:12;42.95;;;28.58;;
34960;SDS011;30789;52.030;7.110;2022-10-15T08:39:40;47.20;;;29.33;;
34960;SDS011;30789;52.030;7.110;2022-10-15T08:42:11;47.38;;;29.35;;
34960;SDS011;30789;52.030;7.110;2022-10-15T08:44:43;46.17;;;29.40;;
34960;SDS011;30789;52.030;7.110;2022-10-15T08:47:13;39.75;;;25.08;;
34960;SDS011;30789;52.030;7.110;2022-10-15T08:49:51;37.63;;;23.65;;
34960;SDS011;30789;52.030;7.110;2022-10-15T08:52:19;36.25;;;23.70;;
34960;SDS011;30789;52.030;7.110;2022-10-15T08:54:52;38.03;;;23.33;;
34960;SDS011;30789;52.030;7.110;2022-10-15T08:57:34;32.75;;;21.52;;
34960;SDS011;30789;52.030;7.110;2022-10-15T09:00:21;40.28;;;23.55;;
34960;SDS011;30789;52.030;7.110;2022-10-15T09:02:51;33.45;;;22.52;;
34960;SDS011;30789;52.030;7.110;2022-10-15T09:05:27;34.75;;;23.20;;
34960;SDS011;30789;52.030;7.110;2022-10-15T09:08:01;41.25;;;24.10;;
34960;SDS011;30789;52.030;7.110;2022-10-15T09:10:35;38.42;;;23.98;;
34960;SDS011;30789;52.030;7.110;2022-10-15T09:13:09;38.42;;;25.00;;
34960;SDS011;30789;52.030;7.110;2022-10-15T09:15:40;42.50;;;24.10;;
34960;SDS011;30789;52.030;7.110;2022-10-15T09:18:15;37.72;;;24.25;;
34960;SDS011;30789;52.030;7.110;2022-10-15T09:20:45;43.33;;;24.15;;
34960;SDS011;30789;52.030;7.110;2022-10-15T09:23:12;43.70;;;26.55;;
34960;SDS011;30789;52.030;7.110;2022-10-15T09:25:44;38.45;;;25.00;;
34960;SDS011;30789;52.030;7.110;2022-10-15T09:28:16;44.22;;;25.92;;
34960;SDS011;30789;52.030;7.110;2022-10-15T09:30:48;43.22;;;26.92;;
34960;SDS011;30789;52.030;7.110;2022-10-15T09:33:21;47.08;;;29.60;;
34960;SDS011;30789;52.030;7.110;2022-10-15T09:35:59;51.17;;;30.83;;
34960;SDS011;30789;52.030;7.110;2022-10-15T09:38:36;58.22;;;35.45;;
34960;SDS011;30789;52.030;7.110;2022-10-15T09:41:16;55.35;;;31.83;;
34960;SDS011;30789;52.030;7.110;2022-10-15T09:43:50;48.75;;;30.40;;
34960;SDS011;30789;52.030;7.110;2022-10-15T09:46:20;49.20;;;30.33;;
34960;SDS011;30789;52.030;7.110;2022-10-15T09:48:47;47.58;;;28.95;;
34960;SDS011;30789;52.030;7.110;2022-10-15T09:51:21;46.03;;;28.23;;
34960;SDS011;30789;52.030;7.110;2022-10-15T09:53:51;42.15;;;27.17;;
34960;SDS011;30789;52.030;7.110;2022-10-15T09:56:26;43.92;;;27.83;;
34960;SDS011;30789;52.030;7.110;2022-10-15T09:59:00;33.70;;;24.40;;
34960;SDS011;30789;52.030;7.110;2022-10-15T10:01:28;37.88;;;24.50;;
34960;SDS011;30789;52.030;7.110;2022-10-15T10:04:08;37.15;;;23.42;;
34960;SDS011;30789;52.030;7.110;2022-10-15T10:06:41;32.83;;;23.55;;
34960;SDS011;30789;52.030;7.110;2022-10-15T10:09:11;36.28;;;23.45;;
34960;SDS011;30789;52.030;7.110;2022-10-15T10:11:46;30.92;;;21.02;;
34960;SDS011;30789;52.030;7.110;2022-10-15T10:14:20;28.13;;;20.45;;
34960;SDS011;30789;52.030;7.110;2022-10-15T10:17:12;27.30;;;18.33;;
34960;SDS011;30789;52.030;7.110;2022-10-15T10:19:41;25.58;;;17.25;;
34960;SDS011;30789;52.030;7.110;2022-10-15T10:22:13;24.35;;;17.15;;
34960;SDS011;30789;52.030;7.110;2022-10-15T10:24:42;23.65;;;16.00;;
34960;SDS011;30789;52.030;7.110;2022-10-15T10:27:18;23.08;;;15.32;;
34960;SDS011;30789;52.030;7.110;2022-10-15T10:29:48;16.63;;;11.70;;
34960;SDS011;30789;52.030;7.110;2022-10-15T10:32:20;16.73;;;11.50;;
34960;SDS011;30789;52.030;7.110;2022-10-15T10:34:48;12.00;;;9.70;;
34960;SDS011;30789;52.030;7.110;2022-10-15T10:37:15;11.52;;;9.27;;
34960;SDS011;30789;52.030;7.110;2022-10-15T10:39:42;8.02;;;7.22;;
34960;SDS011;30789;52.030;7.110;2022-10-15T10:42:23;8.05;;;6.97;;
34960;SDS011;30789;52.030;7.110;2022-10-15T10:44:52;8.55;;;6.72;;
34960;SDS011;30789;52.030;7.110;2022-10-15T10:47:19;9.07;;;6.03;;
34960;SDS011;30789;52.030;7.110;2022-10-15T10:49:48;8.15;;;6.63;;
34960;SDS011;30789;52.030;7.110;2022-10-15T10:52:23;8.77;;;6.45;;
34960;SDS011;30789;52.030;7.110;2022-10-15T10:54:54;10.38;;;6.40;;
34960;SDS011;30789;52.030;7.110;2022-10-15T10:57:26;7.38;;;5.90;;
34960;SDS011;30789;52.030;7.110;2022-10-15T11:00:04;6.35;;;5.05;;
34960;SDS011;30789;52.030;7.110;2022-10-15T11:02:32;8.18;;;5.25;;
34960;SDS011;30789;52.030;7.110;2022-10-15T11:05:03;6.85;;;5.07;;
34960;SDS011;30789;52.030;7.110;2022-10-15T11:07:30;5.43;;;4.25;;
34960;SDS011;30789;52.030;7.110;2022-10-15T11:10:06;4.90;;;4.25;;
34960;SDS011;30789;52.030;7.110;2022-10-15T11:12:53;6.47;;;4.38;;
34960;SDS011;30789;52.030;7.110;2022-10-15T11:15:31;4.47;;;3.53;;
34960;SDS011;30789;52.030;7.110;2022-10-15T11:18:16;4.68;;;3.80;;
34960;SDS011;30789;52.030;7.110;2022-10-15T11:21:08;4.22;;;3.47;;
34960;SDS011;30789;52.030;7.110;2022-10-15T11:23:55;5.60;;;4.05;;
34960;SDS011;30789;52.030;7.110;2022-10-15T11:26:36;5.32;;;4.13;;
34960;SDS011;30789;52.030;7.110;2022-10-15T11:29:16;6.28;;;4.35;;
34960;SDS011;30789;52.030;7.110;2022-10-15T11:31:50;5.50;;;4.20;;
34960;SDS011;30789;52.030;7.110;2022-10-15T11:34:29;4.97;;;3.95;;
34960;SDS011;30789;52.030;7.110;2022-10-15T11:37:08;4.70;;;3.92;;
34960;SDS011;30789;52.030;7.110;2022-10-15T11:42:40;5.50;;;3.88;;
34960;SDS011;30789;52.030;7.110;2022-10-15T11:45:23;5.50;;;3.80;;
34960;SDS011;30789;52.030;7.110;2022-10-15T11:47:59;6.72;;;3.97;;
34960;SDS011;30789;52.030;7.110;2022-10-15T11:50:30;4.50;;;3.63;;
34960;SDS011;30789;52.030;7.110;2022-10-15T11:55:53;5.30;;;3.47;;
34960;SDS011;30789;52.030;7.110;2022-10-15T11:58:27;3.15;;;2.85;;
34960;SDS011;30789;52.030;7.110;2022-10-15T12:01:01;5.45;;;2.80;;
34960;SDS011;30789;52.030;7.110;2022-10-15T12:03:32;3.95;;;3.03;;
34960;SDS011;30789;52.030;7.110;2022-10-15T12:06:04;2.97;;;2.47;;
34960;SDS011;30789;52.030;7.110;2022-10-15T12:08:35;5.10;;;2.88;;
34960;SDS011;30789;52.030;7.110;2022-10-15T12:11:11;2.40;;;2.20;;
34960;SDS011;30789;52.030;7.110;2022-10-15T12:13:43;3.47;;;2.65;;
34960;SDS011;30789;52.030;7.110;2022-10-15T12:16:20;2.70;;;2.45;;
34960;SDS011;30789;52.030;7.110;2022-10-15T12:18:54;2.35;;;2.15;;
34960;SDS011;30789;52.030;7.110;2022-10-15T12:21:33;1.90;;;1.70;;
34960;SDS011;30789;52.030;7.110;2022-10-15T12:24:03;2.42;;;1.77;;
34960;SDS011;30789;52.030;7.110;2022-10-15T12:26:34;6.18;;;3.75;;
34960;SDS011;30789;52.030;7.110;2022-10-15T12:29:02;8.57;;;5.03;;
34960;SDS011;30789;52.030;7.110;2022-10-15T12:31:48;5.57;;;4.35;;
34960;SDS011;30789;52.030;7.110;2022-10-15T12:34:26;9.45;;;6.00;;
34960;SDS011;30789;52.030;7.110;2022-10-15T12:36:59;9.77;;;6.28;;
34960;SDS011;30789;52.030;7.110;2022-10-15T12:39:28;4.43;;;3.75;;
34960;SDS011;30789;52.030;7.110;2022-10-15T12:41:55;2.80;;;2.60;;
34960;SDS011;30789;52.030;7.110;2022-10-15T12:44:23;3.03;;;2.45;;
34960;SDS011;30789;52.030;7.110;2022-10-15T12:46:54;3.08;;;2.30;;
34960;SDS011;30789;52.030;7.110;2022-10-15T12:55:29;3.35;;;2.97;;
34960;SDS011;30789;52.030;7.110;2022-10-15T12:57:58;3.83;;;3.40;;
34960;SDS011;30789;52.030;7.110;2022-10-15T13:00:31;2.88;;;2.67;;
34960;SDS011;30789;52.030;7.110;2022-10-15T13:03:16;3.55;;;3.25;;
34960;SDS011;30789;52.030;7.110;2022-10-15T13:08:47;3.53;;;2.88;;
34960;SDS011;30789;52.030;7.110;2022-10-15T13:11:17;3.30;;;3.08;;
34960;SDS011;30789;52.030;7.110;2022-10-15T13:13:47;3.53;;;3.30;;
34960;SDS011;30789;52.030;7.110;2022-10-15T13:16:15;6.03;;;3.92;;
34960;SDS011;30789;52.030;7.110;2022-10-15T13:18:46;3.90;;;3.45;;
34960;SDS011;30789;52.030;7.110;2022-10-15T13:21:14;3.80;;;3.50;;
34960;SDS011;30789;52.030;7.110;2022-10-15T13:23:43;4.15;;;3.25;;
34960;SDS011;30789;52.030;7.110;2022-10-15T13:26:14;3.97;;;3.67;;
34960;SDS011;30789;52.030;7.110;2022-10-15T13:28:44;4.50;;;4.10;;
34960;SDS011;30789;52.030;7.110;2022-10-15T13:31:12;4.10;;;3.80;;
34960;SDS011;30789;52.030;7.110;2022-10-15T13:33:45;3.95;;;3.67;;
34960;SDS011;30789;52.030;7.110;2022-10-15T13:36:17;5.03;;;4.40;;
34960;SDS011;30789;52.030;7.110;2022-10-15T13:38:51;5.05;;;4.65;;
34960;SDS011;30789;52.030;7.110;2022-10-15T13:41:27;6.38;;;4.90;;
34960;SDS011;30789;52.030;7.110;2022-10-15T13:43:55;4.88;;;4.50;;
34960;SDS011;30789;52.030;7.110;2022-10-15T13:46:25;5.72;;;5.20;;
34960;SDS011;30789;52.030;7.110;2022-10-15T13:48:58;5.93;;;5.10;;
34960;SDS011;30789;52.030;7.110;2022-10-15T13:51:28;5.93;;;5.32;;
34960;SDS011;30789;52.030;7.110;2022-10-15T13:53:58;5.30;;;4.82;;
34960;SDS011;30789;52.030;7.110;2022-10-15T13:56:27;5.55;;;5.05;;
34960;SDS011;30789;52.030;7.110;2022-10-15T13:58:54;5.38;;;4.93;;
34960;SDS011;30789;52.030;7.110;2022-10-15T14:01:23;6.05;;;4.70;;
34960;SDS011;30789;52.030;7.110;2022-10-15T14:03:51;4.40;;;4.10;;
34960;SDS011;30789;52.030;7.110;2022-10-15T14:06:21;5.15;;;4.60;;
34960;SDS011;30789;52.030;7.110;2022-10-15T14:08:49;4.82;;;4.40;;
34960;SDS011;30789;52.030;7.110;2022-10-15T14:11:17;5.10;;;4.65;;
34960;SDS011;30789;52.030;7.110;2022-10-15T14:13:44;4.75;;;4.35;;
34960;SDS011;30789;52.030;7.110;2022-10-15T14:16:12;4.85;;;4.45;;
34960;SDS011;30789;52.030;7.110;2022-10-15T14:18:43;5.00;;;4.50;;
34960;SDS011;30789;52.030;7.110;2022-10-15T14:21:13;4.90;;;4.50;;
34960;SDS011;30789;52.030;7.110;2022-10-15T14:23:43;5.60;;;5.10;;
34960;SDS011;30789;52.030;7.110;2022-10-15T14:26:11;5.85;;;5.25;;
34960;SDS011;30789;52.030;7.110;2022-10-15T14:28:39;5.53;;;5.03;;
34960;SDS011;30789;52.030;7.110;2022-10-15T14:31:06;6.00;;;4.85;;
34960;SDS011;30789;52.030;7.110;2022-10-15T14:33:38;5.97;;;5.13;;
34960;SDS011;30789;52.030;7.110;2022-10-15T14:36:10;7.88;;;5.22;;
34960;SDS011;30789;52.030;7.110;2022-10-15T14:38:38;4.80;;;4.30;;
34960;SDS011;30789;52.030;7.110;2022-10-15T14:41:17;5.45;;;4.53;;
34960;SDS011;30789;52.030;7.110;2022-10-15T14:44:00;5.28;;;4.40;;
34960;SDS011;30789;52.030;7.110;2022-10-15T14:46:33;3.97;;;3.42;;
34960;SDS011;30789;52.030;7.110;2022-10-15T14:49:03;3.83;;;3.53;;
34960;SDS011;30789;52.030;7.110;2022-10-15T14:51:39;6.28;;;3.47;;
34960;SDS011;30789;52.030;7.110;2022-10-15T14:54:08;4.60;;;3.58;;
34960;SDS011;30789;52.030;7.110;2022-10-15T14:56:45;2.88;;;2.53;;
34960;SDS011;30789;52.030;7.110;2022-10-15T14:59:13;3.70;;;2.58;;
34960;SDS011;30789;52.030;7.110;2022-10-15T15:01:49;3.13;;;2.63;;
34960;SDS011;30789;52.030;7.110;2022-10-15T15:04:34;2.30;;;1.98;;
34960;SDS011;30789;52.030;7.110;2022-10-15T15:07:05;3.25;;;2.30;;
34960;SDS011;30789;52.030;7.110;2022-10-15T15:09:37;1.95;;;1.73;;
34960;SDS011;30789;52.030;7.110;2022-10-15T15:12:07;6.70;;;2.50;;
34960;SDS011;30789;52.030;7.110;2022-10-15T15:14:39;2.50;;;1.85;;